Time;durP1;ratioP1;P1;durP2;ratioP2;P2;SDS_P1;SDS_P2;PMS_P1;PMS_P2;Temp;Humidity;BMP_temperature;BMP_pressure;BME280_temperature;BME280_humidity;BME280_pressure;Samples;Min_cycle;Max_cycle;Signal;HPM_P1;HPM_P2
2024/01/19 00:01:53;;;;;;;2.10;1.37;;;;;;;-0.28;61.09;100711.56;4955835;28;96850;-54
2024/01/19 00:04:18;;;;;;;1.90;1.27;;;;;;;-0.25;61.73;100719.59;4956080;28;96817;-55
2024/01/19 00:06:44;;;;;;;1.60;1.50;;;;;;;-0.21;61.28;100719.47;4951553;28;110653;-53
2024/01/19 00:09:09;;;;;;;3.37;1.73;;;;;;;-0.23;61.07;100722.63;4954466;28;97061;-54
2024/01/19 00:11:36;;;;;;;3.40;1.30;;;;;;;-0.20;61.19;100721.00;4950828;28;97126;-54
2024/01/19 00:14:01;;;;;;;6.80;1.37;;;;;;;-0.18;61.00;100719.34;4953135;28;97226;-54
2024/01/19 00:16:26;;;;;;;5.80;1.20;;;;;;;-0.17;61.04;100725.53;4954111;28;97239;-54
2024/01/19 00:18:52;;;;;;;2.33;1.20;;;;;;;-0.18;61.13;100726.75;4955042;28;98458;-54
2024/01/19 00:21:17;;;;;;;2.20;1.10;;;;;;;-0.18;61.14;100727.50;4955557;28;97174;-54
2024/01/19 00:23:42;;;;;;;7.20;1.80;;;;;;;-0.16;61.16;100740.66;4955505;28;101114;-55
2024/01/19 00:26:08;;;;;;;4.10;1.20;;;;;;;-0.18;61.20;100741.09;4952085;28;98465;-54
2024/01/19 00:28:33;;;;;;;1.83;1.30;;;;;;;-0.18;61.09;100740.34;4956963;28;97130;-53
2024/01/19 00:30:58;;;;;;;1.63;1.30;;;;;;;-0.17;61.20;100748.06;4952498;28;99918;-53
2024/01/19 00:33:23;;;;;;;1.23;1.13;;;;;;;-0.13;61.04;100745.97;4954669;28;97100;-54
2024/01/19 00:35:49;;;;;;;1.60;1.50;;;;;;;-0.15;60.97;100747.63;4954519;28;97858;-53
2024/01/19 00:38:14;;;;;;;1.53;1.33;;;;;;;-0.15;61.08;100753.81;4954227;28;97107;-53
2024/01/19 00:40:39;;;;;;;2.93;1.10;;;;;;;-0.13;60.95;100756.84;4951088;28;97119;-54
2024/01/19 00:43:05;;;;;;;4.73;1.30;;;;;;;-0.14;60.97;100741.75;4955185;28;96903;-54
2024/01/19 00:45:30;;;;;;;1.63;1.20;;;;;;;-0.12;60.78;100761.09;4955467;28;97895;-54
2024/01/19 00:47:56;;;;;;;2.97;1.17;;;;;;;-0.12;60.91;100758.38;4954466;28;97022;-53
2024/01/19 00:50:21;;;;;;;1.17;1.07;;;;;;;-0.10;60.90;100757.94;4954155;28;96697;-54
2024/01/19 00:52:46;;;;;;;3.43;1.93;;;;;;;-0.10;60.79;100768.81;4954888;28;96862;-54
2024/01/19 00:55:11;;;;;;;2.33;1.30;;;;;;;-0.10;60.76;100766.84;4955298;28;96987;-54
2024/01/19 00:57:37;;;;;;;2.50;1.17;;;;;;;-0.13;61.01;100765.00;4953772;28;103740;-54
2024/01/19 01:00:03;;;;;;;2.50;1.40;;;;;;;-0.13;60.89;100770.44;4959609;28;97189;-53
2024/01/19 01:02:29;;;;;;;1.30;1.00;;;;;;;-0.11;61.06;100778.16;4952518;28;97039;-53
2024/01/19 01:04:55;;;;;;;1.23;0.90;;;;;;;-0.11;60.77;100768.03;4955199;28;97879;-53
2024/01/19 01:07:21;;;;;;;4.43;1.30;;;;;;;-0.11;60.96;100772.72;4955188;28;97254;-54
2024/01/19 01:09:47;;;;;;;3.87;1.40;;;;;;;-0.12;60.84;100771.97;4955472;28;96901;-54
2024/01/19 01:12:13;;;;;;;1.87;1.57;;;;;;;-0.13;60.83;100769.69;4956263;28;96768;-54
2024/01/19 01:14:38;;;;;;;4.17;1.40;;;;;;;-0.13;60.89;100764.25;4953331;28;97447;-54
2024/01/19 01:17:03;;;;;;;2.27;1.10;;;;;;;-0.13;60.83;100772.41;4954001;28;97866;-54
2024/01/19 01:19:29;;;;;;;1.30;1.17;;;;;;;-0.11;60.93;100778.91;4952247;28;97230;-53
2024/01/19 01:21:54;;;;;;;2.47;1.20;;;;;;;-0.08;60.87;100778.06;4954493;28;96999;-54
2024/01/19 01:24:22;;;;;;;2.97;1.30;;;;;;;-0.05;60.82;100788.03;4953842;28;98520;-52
2024/01/19 01:26:47;;;;;;;5.53;1.33;;;;;;;-0.01;60.79;100777.06;4954396;28;97050;-53
2024/01/19 01:29:12;;;;;;;1.80;1.13;;;;;;;0.02;60.65;100787.81;4954132;28;100484;-54
2024/01/19 01:31:38;;;;;;;2.33;0.90;;;;;;;0.04;60.68;100777.25;4953147;28;97438;-54
2024/01/19 01:34:04;;;;;;;2.83;1.17;;;;;;;0.03;60.55;100788.56;4952581;28;97387;-53
2024/01/19 01:36:30;;;;;;;1.50;1.10;;;;;;;0.04;60.89;100787.34;4955312;28;97109;-53
2024/01/19 01:38:55;;;;;;;2.43;1.20;;;;;;;0.04;60.56;100788.13;4951970;28;96825;-53
2024/01/19 01:41:21;;;;;;;3.13;1.43;;;;;;;0.03;60.62;100800.22;4954794;28;96920;-54
2024/01/19 01:43:46;;;;;;;1.50;1.40;;;;;;;0.02;60.51;100811.50;4953596;28;97109;-54
2024/01/19 01:46:12;;;;;;;3.33;1.40;;;;;;;0.02;60.55;100797.91;4951499;28;97170;-54
2024/01/19 01:48:37;;;;;;;2.80;1.40;;;;;;;0.02;60.59;100797.91;4953431;28;97221;-54
2024/01/19 01:51:04;;;;;;;1.10;0.97;;;;;;;0.01;60.59;100797.19;4955636;28;97459;-53
2024/01/19 01:53:30;;;;;;;1.67;1.20;;;;;;;0.02;60.60;100800.63;4953315;28;96941;-53
2024/01/19 01:55:56;;;;;;;1.50;1.40;;;;;;;0.02;60.51;100806.06;4957161;28;96730;-54
2024/01/19 01:58:22;;;;;;;1.43;1.27;;;;;;;0.02;60.56;100803.34;4953871;28;96832;-52
2024/01/19 02:00:48;;;;;;;2.93;1.57;;;;;;;0.02;60.75;100803.34;4953870;28;96953;-53
2024/01/19 02:03:13;;;;;;;1.70;1.23;;;;;;;0.01;60.79;100810.00;4951753;28;97609;-53
2024/01/19 02:05:39;;;;;;;2.33;0.93;;;;;;;0.03;60.54;100811.09;4952251;28;97017;-53
2024/01/19 02:08:04;;;;;;;1.80;1.40;;;;;;;0.10;60.70;100818.25;4954035;28;103685;-52
2024/01/19 02:10:30;;;;;;;5.70;1.10;;;;;;;0.16;60.89;100819.97;4953670;28;97128;-53
2024/01/19 02:12:55;;;;;;;3.27;1.23;;;;;;;0.24;60.60;100831.34;4953335;28;97296;-54
2024/01/19 02:15:22;;;;;;;2.63;1.50;;;;;;;0.27;60.73;100825.81;4951261;28;97455;-54
2024/01/19 02:17:49;;;;;;;2.40;1.30;;;;;;;0.30;60.41;100835.78;4953235;28;97343;-53
2024/01/19 02:20:15;;;;;;;2.37;1.40;;;;;;;0.33;60.44;100828.72;4952514;28;97210;-53
2024/01/19 02:22:42;;;;;;;1.80;1.37;;;;;;;0.37;60.23;100834.78;4952751;28;96828;-53
2024/01/19 02:25:08;;;;;;;1.13;1.00;;;;;;;0.37;60.39;100837.50;4952505;28;100602;-52
2024/01/19 02:27:34;;;;;;;3.37;1.10;;;;;;;0.42;60.38;100831.50;4952566;28;96677;-53
2024/01/19 02:30:00;;;;;;;2.70;1.50;;;;;;;0.43;60.18;100837.72;4954290;28;96773;-53
2024/01/19 02:32:26;;;;;;;4.57;1.07;;;;;;;0.48;60.40;100845.31;4952724;28;97651;-52
2024/01/19 02:34:51;;;;;;;1.40;1.00;;;;;;;0.48;60.06;100840.63;4954933;28;105525;-54
2024/01/19 02:37:16;;;;;;;1.67;1.43;;;;;;;0.49;60.35;100855.78;4955021;28;102158;-53
2024/01/19 02:39:42;;;;;;;2.00;1.20;;;;;;;0.53;60.34;100840.06;4955685;28;97181;-54
2024/01/19 02:42:08;;;;;;;1.80;1.07;;;;;;;0.56;60.03;100838.44;4953830;28;98536;-52
2024/01/19 02:44:33;;;;;;;2.67;1.03;;;;;;;0.57;60.08;100837.22;4951163;28;96900;-54
2024/01/19 02:46:58;;;;;;;4.67;1.10;;;;;;;0.55;60.18;100840.38;4951752;28;100255;-53
2024/01/19 02:49:24;;;;;;;1.77;0.90;;;;;;;0.56;60.26;100846.59;4951280;28;97433;-54
2024/01/19 02:51:49;;;;;;;1.40;1.03;;;;;;;0.55;60.20;100839.63;4952576;28;97424;-53
2024/01/19 02:54:14;;;;;;;2.90;1.17;;;;;;;0.52;59.95;100840.53;4951773;28;98295;-53
2024/01/19 02:56:40;;;;;;;8.53;1.27;;;;;;;0.52;60.23;100835.81;4954666;28;96845;-53
2024/01/19 02:59:05;;;;;;;3.67;1.70;;;;;;;0.50;59.89;100837.47;4958252;28;97211;-53
2024/01/19 03:01:30;;;;;;;3.67;0.90;;;;;;;0.50;60.00;100846.38;4954721;28;97304;-53
2024/01/19 03:03:56;;;;;;;1.03;0.97;;;;;;;0.46;60.00;100837.59;4953333;28;108918;-53
2024/01/19 03:06:23;;;;;;;1.17;1.00;;;;;;;0.45;60.21;100841.53;4954071;28;97156;-53
2024/01/19 03:08:48;;;;;;;2.93;1.20;;;;;;;0.45;60.42;100840.75;4958299;28;96699;-54
2024/01/19 03:11:13;;;;;;;1.40;1.30;;;;;;;0.47;60.33;100850.00;4955016;28;97406;-52
2024/01/19 03:13:39;;;;;;;4.00;2.20;;;;;;;0.76;59.74;100849.78;4953361;28;97129;-53
2024/01/19 03:16:06;;;;;;;2.17;1.20;;;;;;;0.67;60.01;100844.25;4960323;28;97262;-54
2024/01/19 03:18:31;;;;;;;4.73;2.10;;;;;;;0.88;59.64;100854.38;4955498;28;97130;-54
2024/01/19 03:20:56;;;;;;;2.10;1.07;;;;;;;0.76;59.60;100855.97;4955437;28;97811;-53
2024/01/19 03:23:22;;;;;;;2.53;1.27;;;;;;;0.72;59.71;100851.84;4954520;28;97993;-54
2024/01/19 03:25:48;;;;;;;2.30;1.10;;;;;;;0.70;60.10;100865.13;4955442;28;101390;-53
2024/01/19 03:28:13;;;;;;;2.03;1.10;;;;;;;0.70;59.97;100865.91;4956622;28;96839;-53
2024/01/19 03:30:38;;;;;;;2.13;0.97;;;;;;;0.72;59.70;100862.72;4950208;28;97299;-53
2024/01/19 03:33:04;;;;;;;1.73;1.00;;;;;;;0.68;59.91;100860.13;4955344;28;97440;-53
2024/01/19 03:35:29;;;;;;;2.63;1.10;;;;;;;0.66;59.76;100851.66;4957074;28;97305;-52
2024/01/19 03:37:54;;;;;;;1.60;1.20;;;;;;;0.66;59.69;100862.56;4956005;28;104907;-54
2024/01/19 03:40:20;;;;;;;2.50;1.07;;;;;;;0.66;59.94;100870.72;4954326;28;97312;-52
2024/01/19 03:42:46;;;;;;;6.03;1.30;;;;;;;0.65;59.90;100869.19;4955507;28;98433;-53
2024/01/19 03:45:11;;;;;;;2.07;1.07;;;;;;;0.64;59.90;100875.84;4956268;28;97148;-52
2024/01/19 03:47:36;;;;;;;2.20;1.00;;;;;;;0.62;59.83;100875.53;4956556;28;97087;-52
2024/01/19 03:50:05;;;;;;;2.60;1.00;;;;;;;0.58;59.59;100877.63;4955079;28;97181;-53
2024/01/19 03:52:31;;;;;;;4.47;0.87;;;;;;;0.58;59.83;100872.19;4959050;28;98969;-52
2024/01/19 03:54:56;;;;;;;2.50;0.63;;;;;;;0.57;59.96;100865.19;4954238;28;97001;-54
2024/01/19 03:57:21;;;;;;;3.57;0.80;;;;;;;0.56;59.68;100858.25;4955561;28;96879;-52
2024/01/19 03:59:47;;;;;;;8.07;0.90;;;;;;;0.53;59.62;100864.56;4953537;28;110091;-52
2024/01/19 04:02:12;;;;;;;0.70;0.70;;;;;;;0.51;59.57;100869.69;4955672;28;97550;-54
2024/01/19 04:04:37;;;;;;;0.90;0.77;;;;;;;0.48;59.45;100873.28;4955404;28;97042;-55
2024/01/19 04:07:03;;;;;;;2.77;1.03;;;;;;;0.45;59.70;100890.53;4953641;28;99170;-54
2024/01/19 04:09:28;;;;;;;2.40;1.20;;;;;;;0.45;59.88;100884.31;4954271;28;96795;-53
2024/01/19 04:11:53;;;;;;;2.63;0.90;;;;;;;0.44;59.76;100888.97;4950416;28;112368;-53
2024/01/19 04:14:19;;;;;;;3.63;1.10;;;;;;;0.46;59.85;100886.56;4954854;28;97170;-53
2024/01/19 04:16:44;;;;;;;2.73;1.30;;;;;;;0.48;59.67;100892.34;4953652;28;101609;-53
2024/01/19 04:19:09;;;;;;;1.00;0.73;;;;;;;0.47;59.83;100900.94;4952326;28;106085;-53
2024/01/19 04:21:35;;;;;;;3.90;0.80;;;;;;;0.46;59.82;100900.19;4952996;28;98066;-53
2024/01/19 04:24:01;;;;;;;4.43;0.90;;;;;;;0.49;59.82;100909.44;4953636;28;99836;-54
2024/01/19 04:26:30;;;;;;;5.37;1.40;;;;;;;0.48;59.54;100919.56;4953661;28;96637;-52
2024/01/19 04:28:55;;;;;;;2.47;1.23;;;;;;;0.49;59.59;100918.38;4952945;28;97418;-52
2024/01/19 04:31:21;;;;;;;1.47;0.87;;;;;;;0.47;59.79;100920.78;4953360;28;97166;-53
2024/01/19 04:33:46;;;;;;;1.70;0.87;;;;;;;0.47;59.68;100926.22;4947877;28;97147;-52
2024/01/19 04:36:11;;;;;;;2.20;1.30;;;;;;;0.48;59.85;100919.56;4951774;28;96879;-54
2024/01/19 04:38:37;;;;;;;3.40;0.73;;;;;;;0.49;59.90;100920.31;4953182;28;103077;-52
2024/01/19 04:41:03;;;;;;;0.73;0.70;;;;;;;0.46;59.73;100926.63;4953826;28;98636;-53
2024/01/19 04:43:28;;;;;;;2.33;0.80;;;;;;;0.47;59.94;100939.81;4956417;28;97266;-53
2024/01/19 04:45:53;;;;;;;2.80;0.83;;;;;;;0.50;60.00;100936.22;4953431;28;97494;-53
2024/01/19 04:48:18;;;;;;;3.80;1.13;;;;;;;0.50;60.03;100943.63;4953714;28;107338;-53
2024/01/19 04:50:44;;;;;;;9.97;1.80;;;;;;;0.57;59.88;100949.59;4953557;28;104376;-53
2024/01/19 04:53:09;;;;;;;0.93;0.90;;;;;;;0.62;59.97;100942.81;4951016;28;99108;-53
2024/01/19 04:55:34;;;;;;;2.20;0.90;;;;;;;0.64;59.79;100943.16;4950943;28;96782;-54
2024/01/19 04:58:00;;;;;;;2.50;1.10;;;;;;;0.63;59.98;100945.09;4948927;28;97057;-54
2024/01/19 05:00:27;;;;;;;1.47;1.00;;;;;;;0.64;60.01;100943.91;4952596;28;96865;-53
2024/01/19 05:02:52;;;;;;;1.30;0.97;;;;;;;0.66;59.85;100944.22;4955121;28;97449;-54
2024/01/19 05:05:17;;;;;;;3.00;1.00;;;;;;;0.69;59.87;100943.34;4952752;28;97029;-50
2024/01/19 05:07:42;;;;;;;5.13;1.30;;;;;;;0.71;59.78;100948.34;4955177;28;96755;-54
2024/01/19 05:10:08;;;;;;;3.63;1.10;;;;;;;0.69;59.61;100954.25;4953871;28;97164;-53
2024/01/19 05:12:34;;;;;;;2.87;1.23;;;;;;;0.69;59.74;100951.53;4951935;28;97078;-55
2024/01/19 05:14:59;;;;;;;3.23;1.10;;;;;;;0.71;60.04;100979.06;4953557;28;96965;-53
2024/01/19 05:17:25;;;;;;;1.20;0.80;;;;;;;0.74;59.61;100955.63;4950421;28;98726;-53
2024/01/19 05:19:50;;;;;;;2.60;0.90;;;;;;;0.75;59.86;100959.88;4954047;28;100067;-53
2024/01/19 05:22:15;;;;;;;1.93;1.40;;;;;;;0.77;59.83;100962.91;4952466;28;97008;-53
2024/01/19 05:24:41;;;;;;;1.53;1.23;;;;;;;0.76;59.79;100972.31;4952585;28;97254;-53
2024/01/19 05:27:07;;;;;;;1.77;0.97;;;;;;;0.77;59.77;100965.66;4952953;28;97523;-53
2024/01/19 05:29:34;;;;;;;1.10;1.00;;;;;;;0.78;59.66;100964.47;4953384;28;97210;-53
2024/01/19 05:31:59;;;;;;;5.23;1.47;;;;;;;0.77;59.59;100971.84;4952680;28;97048;-53
2024/01/19 05:34:24;;;;;;;1.83;0.90;;;;;;;0.76;59.56;100975.78;4953052;28;97186;-53
2024/01/19 05:36:50;;;;;;;2.20;1.10;;;;;;;0.74;59.72;100971.97;4951037;28;98475;-53
2024/01/19 05:39:15;;;;;;;2.37;1.27;;;;;;;0.72;59.40;100974.38;4955193;28;111073;-52
2024/01/19 05:41:40;;;;;;;1.53;1.10;;;;;;;0.67;59.55;100967.50;4951766;28;97092;-54
2024/01/19 05:44:06;;;;;;;3.27;1.00;;;;;;;0.66;59.80;100976.91;4951179;28;102607;-53
2024/01/19 05:46:31;;;;;;;2.40;1.10;;;;;;;0.65;59.54;100980.81;4950456;28;97412;-53
2024/01/19 05:48:56;;;;;;;1.70;1.10;;;;;;;0.65;59.44;100993.69;4953204;28;97358;-53
2024/01/19 05:51:22;;;;;;;3.93;1.33;;;;;;;0.62;59.60;100992.59;4954450;28;96958;-53
2024/01/19 05:53:47;;;;;;;1.40;1.13;;;;;;;0.59;59.64;100993.47;4952259;28;97028;-53
2024/01/19 05:56:13;;;;;;;1.23;1.10;;;;;;;0.59;59.68;100993.47;4952448;28;97322;-54
2024/01/19 05:58:38;;;;;;;2.13;1.10;;;;;;;0.55;59.64;100992.81;4955263;28;97115;-53
2024/01/19 06:01:05;;;;;;;1.70;1.27;;;;;;;0.52;59.74;100995.66;4950313;28;101092;-53
2024/01/19 06:03:30;;;;;;;2.27;1.20;;;;;;;0.52;59.62;100993.69;4951236;28;97365;-53
2024/01/19 06:05:56;;;;;;;1.40;1.30;;;;;;;0.49;59.48;100994.59;4952652;28;97651;-52
2024/01/19 06:08:22;;;;;;;2.53;1.27;;;;;;;0.47;59.69;101004.38;4950855;28;97790;-54
2024/01/19 06:10:47;;;;;;;3.57;2.37;;;;;;;0.45;59.78;101006.78;4952957;28;97704;-53
2024/01/19 06:13:13;;;;;;;8.07;1.60;;;;;;;0.41;59.77;101006.88;4952504;28;98291;-53
2024/01/19 06:15:38;;;;;;;1.93;1.50;;;;;;;0.40;59.71;101010.81;4954912;28;97663;-53
2024/01/19 06:18:04;;;;;;;2.63;1.70;;;;;;;0.37;59.66;101014.41;4954815;28;98368;-53
2024/01/19 06:20:29;;;;;;;2.33;1.70;;;;;;;0.38;59.67;101023.34;4952851;28;97313;-52
2024/01/19 06:22:54;;;;;;;4.43;2.53;;;;;;;0.37;59.65;101030.00;4954076;28;96988;-52
2024/01/19 06:25:20;;;;;;;3.00;1.60;;;;;;;0.38;59.56;101028.78;4952120;28;109739;-53
2024/01/19 06:27:45;;;;;;;3.57;1.60;;;;;;;0.36;59.55;101034.66;4953569;28;109804;-53
2024/01/19 06:30:11;;;;;;;1.63;1.53;;;;;;;0.37;59.73;101036.16;4952765;28;101243;-52
2024/01/19 06:32:36;;;;;;;3.57;1.77;;;;;;;0.32;59.92;101044.13;4954624;28;97076;-53
2024/01/19 06:35:02;;;;;;;1.87;1.77;;;;;;;0.31;59.61;101043.38;4950202;28;97499;-53
2024/01/19 06:37:27;;;;;;;2.80;1.33;;;;;;;0.30;59.85;101039.09;4954090;28;99693;-53
2024/01/19 06:39:52;;;;;;;2.70;1.37;;;;;;;0.26;59.67;101047.38;4949725;28;96708;-52
2024/01/19 06:42:18;;;;;;;3.63;2.07;;;;;;;0.26;60.04;101052.06;4950909;28;97319;-53
2024/01/19 06:44:43;;;;;;;4.60;1.60;;;;;;;0.26;59.77;101063.72;4948937;28;98664;-52
2024/01/19 06:47:09;;;;;;;2.10;1.30;;;;;;;0.26;59.77;101074.59;4946189;28;97107;-53
2024/01/19 06:49:36;;;;;;;1.67;1.43;;;;;;;0.27;60.04;101081.56;4953435;28;96775;-52
2024/01/19 06:52:04;;;;;;;2.10;1.70;;;;;;;0.25;59.63;101089.41;4952373;28;97195;-55
2024/01/19 06:54:30;;;;;;;2.00;1.53;;;;;;;0.24;59.94;101087.09;4954229;28;97389;-53
2024/01/19 06:56:55;;;;;;;2.50;1.70;;;;;;;0.24;59.74;101098.00;4954950;28;98873;-53
2024/01/19 06:59:21;;;;;;;1.47;1.33;;;;;;;0.23;59.64;101088.31;4950407;28;97713;-51
2024/01/19 07:01:46;;;;;;;3.43;2.23;;;;;;;0.23;59.84;101099.19;4949686;28;103222;-54
2024/01/19 07:04:11;;;;;;;3.33;1.90;;;;;;;0.22;60.19;101116.72;4948447;28;108669;-53
2024/01/19 07:06:37;;;;;;;2.50;1.80;;;;;;;0.24;59.96;101111.59;4956470;28;107671;-52
2024/01/19 07:09:02;;;;;;;1.87;1.77;;;;;;;0.24;60.02;101117.03;4953057;28;104025;-53
2024/01/19 07:11:28;;;;;;;2.17;1.90;;;;;;;0.23;60.04;101127.16;4952455;28;97253;-53
2024/01/19 07:13:53;;;;;;;2.57;1.90;;;;;;;0.24;59.83;101125.97;4953127;28;97025;-52
2024/01/19 07:16:18;;;;;;;2.70;1.73;;;;;;;0.25;59.89;101126.75;4952942;28;97498;-52
2024/01/19 07:18:44;;;;;;;2.27;1.90;;;;;;;0.23;60.20;101127.16;4950271;28;97053;-52
2024/01/19 07:21:09;;;;;;;2.50;2.00;;;;;;;0.23;59.75;101119.00;4953424;28;101808;-53
2024/01/19 07:23:35;;;;;;;3.47;2.10;;;;;;;0.21;60.04;101126.81;4951235;28;97217;-53
2024/01/19 07:26:00;;;;;;;4.27;2.00;;;;;;;0.21;60.11;101126.81;4954540;28;97040;-52
2024/01/19 07:28:25;;;;;;;4.70;2.30;;;;;;;0.23;60.07;101129.13;4953027;28;97444;-52
2024/01/19 07:30:51;;;;;;;5.53;2.60;;;;;;;0.24;60.18;101125.97;4949596;28;97196;-52
2024/01/19 07:33:16;;;;;;;7.87;3.20;;;;;;;0.24;59.96;101131.41;4953792;28;98451;-52
2024/01/19 07:35:41;;;;;;;4.93;3.30;;;;;;;0.27;59.89;101141.44;4955205;28;97075;-52
2024/01/19 07:38:07;;;;;;;5.17;2.77;;;;;;;0.30;60.31;101143.28;4950331;28;100820;-53
2024/01/19 07:40:33;;;;;;;4.70;2.93;;;;;;;0.33;60.23;101157.97;4953924;28;97132;-53
2024/01/19 07:42:58;;;;;;;4.47;2.97;;;;;;;0.36;59.93;101157.13;4957427;28;97377;-52
2024/01/19 07:45:24;;;;;;;4.33;2.90;;;;;;;0.38;59.91;101165.63;4955469;28;97131;-53
2024/01/19 07:47:49;;;;;;;3.60;3.30;;;;;;;0.39;60.19;101171.81;4957321;28;97082;-52
2024/01/19 07:50:14;;;;;;;5.23;4.50;;;;;;;0.41;60.08;101172.16;4959271;28;107453;-52
2024/01/19 07:52:39;;;;;;;4.23;3.30;;;;;;;0.38;59.92;101176.50;4954645;28;97294;-53
2024/01/19 07:55:05;;;;;;;8.87;3.47;;;;;;;0.39;59.79;101180.72;4952625;28;97334;-55
2024/01/19 07:57:30;;;;;;;9.00;3.30;;;;;;;0.35;59.96;101182.03;4953875;28;97179;-52
2024/01/19 07:59:56;;;;;;;2.80;2.53;;;;;;;0.34;59.98;101191.41;4956968;28;108412;-53
2024/01/19 08:02:21;;;;;;;2.27;2.13;;;;;;;0.36;60.21;101192.50;4955587;28;111936;-52
2024/01/19 08:04:47;;;;;;;2.93;2.50;;;;;;;0.37;59.94;101210.34;4955013;28;96964;-53
2024/01/19 08:07:12;;;;;;;4.07;2.77;;;;;;;0.40;59.92;101204.03;4953914;28;97034;-52
2024/01/19 08:09:38;;;;;;;2.50;1.97;;;;;;;0.42;60.17;101214.50;4954127;28;97128;-53
2024/01/19 08:12:03;;;;;;;3.30;2.80;;;;;;;0.42;60.21;101215.25;4951954;28;103445;-52
2024/01/19 08:14:28;;;;;;;4.83;2.70;;;;;;;0.42;60.32;101223.44;4956039;28;97117;-52
2024/01/19 08:16:54;;;;;;;2.30;2.10;;;;;;;0.42;60.42;101215.25;4956270;28;96986;-53
2024/01/19 08:19:19;;;;;;;7.10;3.50;;;;;;;0.44;60.24;101226.47;4953759;28;101385;-52
2024/01/19 08:21:44;;;;;;;5.30;3.27;;;;;;;0.48;60.31;101220.91;4954312;28;98601;-52
2024/01/19 08:24:12;;;;;;;5.20;3.00;;;;;;;0.52;60.30;101233.22;4954062;28;97296;-50
2024/01/19 08:26:37;;;;;;;5.53;2.97;;;;;;;0.55;60.29;101221.50;4955539;28;97105;-53
2024/01/19 08:29:03;;;;;;;4.20;3.47;;;;;;;0.58;60.01;101226.09;4948750;28;96812;-53
2024/01/19 08:31:30;;;;;;;2.60;2.23;;;;;;;0.59;60.00;101232.28;4953340;28;99613;-52
2024/01/19 08:33:56;;;;;;;2.93;2.60;;;;;;;0.62;60.17;101232.19;4955522;28;97214;-52
2024/01/19 08:36:24;;;;;;;2.83;2.57;;;;;;;0.66;60.16;101229.34;4954928;28;97167;-51
2024/01/19 08:38:50;;;;;;;4.30;2.27;;;;;;;0.67;60.10;101234.34;4958535;28;96915;-52
2024/01/19 08:41:15;;;;;;;3.33;2.90;;;;;;;0.68;60.13;101240.56;4954689;28;97057;-52
2024/01/19 08:43:41;;;;;;;3.30;2.67;;;;;;;0.65;60.07;101246.91;4953646;28;97238;-53
2024/01/19 08:46:07;;;;;;;5.20;2.83;;;;;;;0.65;60.25;101247.63;4955073;28;97125;-52
2024/01/19 08:48:33;;;;;;;2.70;2.50;;;;;;;0.68;59.99;101251.47;4957265;28;97370;-52
2024/01/19 08:50:59;;;;;;;3.17;2.87;;;;;;;0.70;60.33;101257.22;4954812;28;97377;-52
2024/01/19 08:53:24;;;;;;;3.60;3.10;;;;;;;0.74;60.25;101250.50;4950124;28;97268;-52
2024/01/19 08:55:50;;;;;;;2.50;2.27;;;;;;;0.75;60.10;101252.03;4953798;28;97673;-52
2024/01/19 08:58:16;;;;;;;5.00;3.30;;;;;;;0.80;60.28;101254.19;4953049;28;97055;-51
2024/01/19 09:00:42;;;;;;;5.70;3.20;;;;;;;0.80;60.03;101259.63;4950101;28;97215;-51
2024/01/19 09:03:07;;;;;;;3.40;3.00;;;;;;;0.82;60.39;101261.94;4951565;28;97709;-51
2024/01/19 09:05:34;;;;;;;3.63;3.07;;;;;;;0.85;60.14;101269.22;4955672;28;97019;-52
2024/01/19 09:08:00;;;;;;;3.87;2.77;;;;;;;0.90;60.29;101274.91;4947507;28;97269;-53
2024/01/19 09:10:25;;;;;;;3.63;2.87;;;;;;;0.94;60.17;101269.34;4954262;28;97594;-52
2024/01/19 09:12:51;;;;;;;4.30;3.20;;;;;;;1.00;60.10;101273.06;4951992;28;97083;-53
2024/01/19 09:15:16;;;;;;;4.60;2.93;;;;;;;1.01;59.99;101290.94;4952911;28;97004;-52
2024/01/19 09:17:42;;;;;;;7.67;3.47;;;;;;;1.04;60.19;101303.72;4954493;28;97160;-51
2024/01/19 09:20:07;;;;;;;3.17;2.80;;;;;;;1.03;60.00;101294.00;4952572;28;96915;-53
2024/01/19 09:22:33;;;;;;;5.20;3.10;;;;;;;1.09;60.05;101294.22;4952166;28;98605;-51
2024/01/19 09:24:58;;;;;;;5.30;3.40;;;;;;;1.11;60.13;101303.47;4954474;28;106613;-52
2024/01/19 09:27:23;;;;;;;3.67;3.33;;;;;;;1.14;60.17;101301.84;4953266;28;97133;-53
2024/01/19 09:29:49;;;;;;;4.43;3.23;;;;;;;1.19;59.96;101301.31;4951593;28;98776;-51
2024/01/19 09:32:16;;;;;;;3.20;2.90;;;;;;;1.22;60.35;101303.91;4952091;28;97187;-52
2024/01/19 09:34:43;;;;;;;3.70;3.27;;;;;;;1.25;59.86;101308.50;4955585;28;97122;-52
2024/01/19 09:37:09;;;;;;;3.40;3.10;;;;;;;1.28;59.89;101304.91;4953240;28;97154;-52
2024/01/19 09:39:34;;;;;;;5.63;3.10;;;;;;;1.32;60.11;101315.72;4953408;28;96780;-52
2024/01/19 09:42:07;;;;;;;4.43;3.20;;;;;;;1.36;59.68;101325.31;4953879;28;96992;-52
2024/01/19 09:44:36;;;;;;;3.90;3.00;;;;;;;1.39;59.81;101329.13;4954370;28;96671;-52
2024/01/19 09:47:12;;;;;;;4.10;3.27;;;;;;;1.44;59.75;101323.09;4952037;28;97263;-51
2024/01/19 09:49:47;;;;;;;6.67;3.17;;;;;;;1.48;60.01;101329.97;4949253;28;97621;-51
2024/01/19 09:52:21;;;;;;;4.77;3.60;;;;;;;1.51;60.01;101323.66;4952707;28;96799;-51
2024/01/19 09:54:47;;;;;;;5.20;4.10;;;;;;;1.54;59.89;101335.66;4952383;28;97164;-51
2024/01/19 09:57:12;;;;;;;3.53;2.67;;;;;;;1.61;59.93;101343.63;4954412;28;97159;-52
2024/01/19 09:59:37;;;;;;;3.83;2.93;;;;;;;1.65;60.26;101344.28;4952661;28;97634;-51
2024/01/19 10:02:04;;;;;;;6.50;3.00;;;;;;;1.68;59.64;101357.03;4949703;28;97158;-51
2024/01/19 10:04:29;;;;;;;8.30;2.90;;;;;;;1.72;59.69;101361.16;4952448;28;101073;-51
2024/01/19 10:06:55;;;;;;;3.40;2.83;;;;;;;1.72;59.46;101354.97;4952879;28;97245;-52
2024/01/19 10:09:22;;;;;;;3.20;2.80;;;;;;;1.73;59.53;101357.25;4953519;28;97045;-52
2024/01/19 10:11:51;;;;;;;4.63;3.03;;;;;;;1.76;59.79;101367.25;4953900;28;96975;-52
2024/01/19 10:14:18;;;;;;;4.27;3.30;;;;;;;1.80;59.73;101367.16;4952800;28;96834;-52
2024/01/19 10:16:43;;;;;;;3.10;2.87;;;;;;;1.83;59.55;101374.47;4952910;28;97227;-51
2024/01/19 10:19:12;;;;;;;5.57;3.47;;;;;;;1.86;59.53;101381.00;4953122;28;97143;-52
2024/01/19 10:21:38;;;;;;;4.70;2.80;;;;;;;1.90;59.83;101387.13;4951638;28;97394;-53
2024/01/19 10:24:11;;;;;;;3.10;2.70;;;;;;;1.94;59.34;101382.31;4951179;28;96936;-51
2024/01/19 10:26:37;;;;;;;4.67;2.60;;;;;;;1.95;59.51;101383.84;4956117;28;96910;-53
2024/01/19 10:29:16;;;;;;;2.77;2.57;;;;;;;1.98;59.20;101391.94;4952755;28;97432;-52
2024/01/19 10:31:46;;;;;;;5.50;3.47;;;;;;;2.02;59.39;101383.63;4951586;28;99491;-51
2024/01/19 10:34:17;;;;;;;3.63;2.87;;;;;;;2.05;59.74;101386.22;4954646;28;98617;-52
2024/01/19 10:36:44;;;;;;;7.40;2.83;;;;;;;2.05;59.19;101385.47;4955467;28;97414;-52
2024/01/19 10:39:29;;;;;;;9.23;2.97;;;;;;;2.07;59.07;101383.06;4951989;28;97834;-51
2024/01/19 10:42:06;;;;;;;3.77;2.60;;;;;;;2.11;59.19;101387.22;4953037;28;97185;-51
2024/01/19 10:44:32;;;;;;;2.93;2.73;;;;;;;2.13;59.38;101384.81;4953962;28;97159;-52
2024/01/19 10:46:57;;;;;;;7.90;2.50;;;;;;;2.13;59.42;101393.00;4955505;28;97681;-52
2024/01/19 10:49:23;;;;;;;5.70;2.40;;;;;;;2.20;59.67;101392.00;4953980;28;98864;-51
2024/01/19 10:51:49;;;;;;;5.50;2.50;;;;;;;2.23;59.46;101399.28;4955576;28;98972;-53
2024/01/19 10:54:25;;;;;;;3.13;2.83;;;;;;;2.25;59.09;101399.63;4949817;28;97112;-52
2024/01/19 10:57:03;;;;;;;4.13;2.83;;;;;;;2.26;58.92;101399.19;4957148;28;96878;-52
2024/01/19 10:59:29;;;;;;;2.70;2.50;;;;;;;2.25;59.44;101400.38;4951257;28;97178;-52
2024/01/19 11:01:59;;;;;;;4.13;2.57;;;;;;;2.28;59.35;101402.25;4952986;28;98333;-52
2024/01/19 11:04:25;;;;;;;4.50;2.63;;;;;;;2.33;59.46;101390.00;4952855;28;96731;-53
2024/01/19 11:06:50;;;;;;;3.30;2.20;;;;;;;2.33;59.45;101393.47;4952401;28;96851;-53
2024/01/19 11:09:16;;;;;;;2.60;2.40;;;;;;;2.35;59.53;101396.56;4950241;28;98023;-52
2024/01/19 11:11:54;;;;;;;5.33;2.83;;;;;;;2.42;59.15;101393.59;4950884;28;97397;-51
2024/01/19 11:14:23;;;;;;;4.30;2.80;;;;;;;2.45;59.38;101389.97;4950238;28;96833;-52
2024/01/19 11:16:52;;;;;;;3.93;2.53;;;;;;;2.50;59.33;101399.59;4952970;28;97291;-52
2024/01/19 11:19:18;;;;;;;2.60;2.33;;;;;;;2.52;58.91;101400.66;4956439;28;97328;-52
2024/01/19 11:21:44;;;;;;;5.90;2.53;;;;;;;2.55;59.32;101399.00;4956513;28;96940;-52
2024/01/19 11:24:12;;;;;;;12.40;2.70;;;;;;;2.57;59.26;101396.63;4957220;28;97500;-53
2024/01/19 11:27:25;;;;;;;4.00;2.40;;;;;;;2.57;58.34;101401.31;4955775;28;96919;-51